createdAt,value
2023-01-21T00:01:19.938Z,36.97
2023-01-21T00:03:46.717Z,46.10
2023-01-21T00:06:16.598Z,39.85
2023-01-21T00:08:43.417Z,43.33
2023-01-21T00:11:13.778Z,43.00
2023-01-21T00:13:40.654Z,39.88
2023-01-21T00:16:07.916Z,42.53
2023-01-21T00:18:34.977Z,45.45
2023-01-21T00:21:01.654Z,42.33
2023-01-21T00:23:28.341Z,39.13
2023-01-21T00:26:02.398Z,40.10
2023-01-21T00:28:29.980Z,42.55
2023-01-21T00:30:58.340Z,40.97
2023-01-21T00:33:25.248Z,43.17
2023-01-21T00:36:01.400Z,43.35
2023-01-21T00:38:28.892Z,47.17
2023-01-21T00:41:06.801Z,40.97
2023-01-21T00:43:33.685Z,40.85
2023-01-21T00:46:00.279Z,42.28
2023-01-21T00:48:28.344Z,42.97
2023-01-21T00:50:56.170Z,43.00
2023-01-21T00:53:23.716Z,39.90
2023-01-21T00:55:50.247Z,46.03
2023-01-21T00:58:16.777Z,40.40
2023-01-21T01:00:43.253Z,44.03
2023-01-21T01:03:09.830Z,43.05
2023-01-21T01:05:37.136Z,45.53
2023-01-21T01:08:03.911Z,46.50
2023-01-21T01:10:30.343Z,44.38
2023-01-21T01:12:56.761Z,49.20
2023-01-21T01:15:23.209Z,41.65
2023-01-21T01:17:49.661Z,42.72
2023-01-21T01:20:16.585Z,45.67
2023-01-21T01:22:43.113Z,48.65
2023-01-21T01:25:09.655Z,47.53
2023-01-21T01:27:36.091Z,48.20
2023-01-21T01:30:02.643Z,49.03
2023-01-21T01:32:29.081Z,44.05
2023-01-21T01:34:55.630Z,46.05
2023-01-21T01:37:22.059Z,43.22
2023-01-21T01:39:48.492Z,42.00
2023-01-21T01:42:15.784Z,47.47
2023-01-21T01:44:56.281Z,46.13
2023-01-21T01:47:28.626Z,46.55
2023-01-21T01:49:55.137Z,43.78
2023-01-21T01:52:21.780Z,46.33
2023-01-21T01:54:50.607Z,44.40
2023-01-21T01:57:19.584Z,44.75
2023-01-21T01:59:47.433Z,43.17
2023-01-21T02:02:17.441Z,40.13
2023-01-21T02:05:00.406Z,42.00
2023-01-21T02:07:28.191Z,45.83
2023-01-21T02:09:55.130Z,43.15
2023-01-21T02:12:22.282Z,41.75
2023-01-21T02:14:49.138Z,41.58
2023-01-21T02:17:38.839Z,39.85
2023-01-21T02:20:26.629Z,44.40
2023-01-21T02:23:30.824Z,42.70
2023-01-21T02:26:18.537Z,43.33
2023-01-21T02:28:48.075Z,44.17
2023-01-21T02:31:37.361Z,45.55
2023-01-21T02:34:12.771Z,48.08
2023-01-21T02:37:01.389Z,44.83
2023-01-21T02:39:35.757Z,43.50
2023-01-21T02:42:40.088Z,46.80
2023-01-21T02:45:29.807Z,38.67
2023-01-21T02:48:08.393Z,42.67
2023-01-21T02:50:41.765Z,45.53
2023-01-21T02:53:23.059Z,46.38
2023-01-21T02:55:49.539Z,44.00
2023-01-21T02:58:17.603Z,43.95
2023-01-21T03:01:06.056Z,43.85
2023-01-21T03:03:54.427Z,38.88
2023-01-21T03:06:49.064Z,40.90
2023-01-21T03:09:22.733Z,42.58
2023-01-21T03:12:00.129Z,42.88
2023-01-21T03:14:49.323Z,43.25
2023-01-21T03:17:28.504Z,43.03
2023-01-21T03:20:04.373Z,43.67
2023-01-21T03:22:33.826Z,43.05
2023-01-21T03:25:00.923Z,41.72
2023-01-21T03:27:28.621Z,44.78
2023-01-21T03:30:02.350Z,42.63
2023-01-21T03:32:29.813Z,45.40
2023-01-21T03:34:56.715Z,42.80
2023-01-21T03:37:42.483Z,39.92
2023-01-21T03:40:18.894Z,46.60
2023-01-21T03:42:47.439Z,42.47
2023-01-21T03:45:14.280Z,43.75
2023-01-21T03:47:43.583Z,44.17
2023-01-21T03:50:20.529Z,42.90
2023-01-21T03:52:47.075Z,44.35
2023-01-21T03:55:14.703Z,41.47
2023-01-21T03:57:41.153Z,44.28
2023-01-21T04:00:08.485Z,42.78
2023-01-21T04:02:35.002Z,42.83
2023-01-21T04:05:01.449Z,50.17
2023-01-21T04:07:28.072Z,43.20
2023-01-21T04:09:54.604Z,43.35
2023-01-21T04:12:21.199Z,41.42
2023-01-21T04:14:47.708Z,43.80
2023-01-21T04:17:14.242Z,39.35
2023-01-21T04:19:40.696Z,40.58
2023-01-21T04:22:07.289Z,44.95
2023-01-21T04:24:34.754Z,46.88
2023-01-21T04:27:01.308Z,47.90
2023-01-21T04:29:27.801Z,46.03
2023-01-21T04:31:54.268Z,45.25
2023-01-21T04:34:20.725Z,46.80
2023-01-21T04:36:47.206Z,48.70
2023-01-21T04:39:13.634Z,45.78
2023-01-21T04:41:40.066Z,47.58
2023-01-21T04:44:06.591Z,48.85
2023-01-21T04:46:33.127Z,45.50
2023-01-21T04:48:59.598Z,49.75
2023-01-21T04:51:25.973Z,44.05
2023-01-21T04:53:52.528Z,51.22
2023-01-21T04:56:18.935Z,46.40
2023-01-21T04:58:45.342Z,43.58
2023-01-21T05:01:14.862Z,55.10
2023-01-21T05:03:42.461Z,40.08
2023-01-21T05:06:08.967Z,54.33
2023-01-21T05:08:35.395Z,44.17
2023-01-21T05:11:02.972Z,46.08
2023-01-21T05:13:29.529Z,44.95
2023-01-21T05:15:56.107Z,45.67
2023-01-21T05:18:22.579Z,44.25
2023-01-21T05:20:49.032Z,43.53
2023-01-21T05:23:15.457Z,47.28
2023-01-21T05:25:41.883Z,46.22
2023-01-21T05:28:08.322Z,44.92
2023-01-21T05:30:34.883Z,47.47
2023-01-21T05:33:01.942Z,51.13
2023-01-21T05:35:28.418Z,42.42
2023-01-21T05:37:55.101Z,48.30
2023-01-21T05:40:21.600Z,48.58
2023-01-21T05:42:48.037Z,41.55
2023-01-21T05:45:14.790Z,52.40
2023-01-21T05:47:41.324Z,53.35
2023-01-21T05:50:08.792Z,41.20
2023-01-21T05:52:35.633Z,43.97
2023-01-21T05:55:03.082Z,43.53
2023-01-21T05:57:30.404Z,52.10
2023-01-21T05:59:57.258Z,46.60
2023-01-21T06:02:24.011Z,52.15
2023-01-21T06:04:50.444Z,45.25
2023-01-21T06:07:16.977Z,45.28
2023-01-21T06:09:43.423Z,45.45
2023-01-21T06:12:09.965Z,44.17
2023-01-21T06:14:36.863Z,46.17
2023-01-21T06:17:03.388Z,46.90
2023-01-21T06:19:29.812Z,43.45
2023-01-21T06:21:56.226Z,46.72
2023-01-21T06:24:22.737Z,49.20
2023-01-21T06:26:49.149Z,44.42
2023-01-21T06:29:15.622Z,42.53
2023-01-21T06:31:42.265Z,50.53
2023-01-21T06:34:10.850Z,45.65
2023-01-21T06:36:37.335Z,43.55
2023-01-21T06:39:03.858Z,46.10
2023-01-21T06:41:30.309Z,44.45
2023-01-21T06:43:56.735Z,44.70
2023-01-21T06:46:23.252Z,46.67
2023-01-21T06:48:49.644Z,45.22
2023-01-21T06:51:16.130Z,51.60
2023-01-21T06:53:42.551Z,48.85
2023-01-21T06:56:09.011Z,46.95
2023-01-21T06:58:35.497Z,51.08
2023-01-21T07:01:01.980Z,49.03
2023-01-21T07:03:29.261Z,45.78
2023-01-21T07:05:55.896Z,49.72
2023-01-21T07:08:22.575Z,52.88
2023-01-21T07:10:49.039Z,53.22
2023-01-21T07:13:15.503Z,53.67
2023-01-21T07:15:42.052Z,46.95
2023-01-21T07:18:08.506Z,56.53
2023-01-21T07:20:35.043Z,54.28
2023-01-21T07:23:01.466Z,55.83
2023-01-21T07:25:27.984Z,54.10
2023-01-21T07:27:54.510Z,56.60
2023-01-21T07:30:21.394Z,56.60
2023-01-21T07:32:47.947Z,52.03
2023-01-21T07:35:14.889Z,54.13
2023-01-21T07:37:41.693Z,53.38
2023-01-21T07:40:08.825Z,58.75
2023-01-21T07:42:35.351Z,56.10
2023-01-21T07:45:03.798Z,57.80
2023-01-21T07:47:30.408Z,54.30
2023-01-21T07:49:56.897Z,55.90
2023-01-21T07:52:23.412Z,57.67
2023-01-21T07:54:49.880Z,56.85
2023-01-21T07:57:16.404Z,55.55
2023-01-21T07:59:43.069Z,52.50
2023-01-21T08:02:10.990Z,56.28
2023-01-21T08:04:37.506Z,52.20
2023-01-21T08:07:11.931Z,53.45
2023-01-21T08:09:39.667Z,57.42
2023-01-21T08:12:07.187Z,63.42
2023-01-21T08:14:34.384Z,60.17
2023-01-21T08:17:01.047Z,56.17
2023-01-21T08:19:27.665Z,54.70
2023-01-21T08:21:54.125Z,52.83
2023-01-21T08:24:20.573Z,52.40
2023-01-21T08:26:49.339Z,50.05
2023-01-21T08:29:15.859Z,48.63
2023-01-21T08:31:42.343Z,47.55
2023-01-21T08:34:08.815Z,43.53
2023-01-21T08:36:35.311Z,46.03
2023-01-21T08:39:02.026Z,44.45
2023-01-21T08:41:28.743Z,45.15
2023-01-21T08:43:55.191Z,40.95
2023-01-21T08:46:21.656Z,40.17
2023-01-21T08:48:48.071Z,40.92
2023-01-21T08:51:14.546Z,45.30
2023-01-21T08:53:45.199Z,42.83
2023-01-21T08:56:11.788Z,37.38
2023-01-21T08:58:38.776Z,39.22
2023-01-21T09:01:10.813Z,39.38
2023-01-21T09:03:37.437Z,38.70
2023-01-21T09:06:05.497Z,39.53
2023-01-21T09:08:32.196Z,39.55
2023-01-21T09:11:02.333Z,43.50
2023-01-21T09:13:30.564Z,42.22
2023-01-21T09:15:57.031Z,46.67
2023-01-21T09:18:23.571Z,41.47
2023-01-21T09:20:50.065Z,45.47
2023-01-21T09:23:25.774Z,42.78
2023-01-21T09:26:01.123Z,44.88
2023-01-21T09:28:28.699Z,44.42
2023-01-21T09:31:05.887Z,40.97
2023-01-21T09:33:35.058Z,42.38
2023-01-21T09:36:04.198Z,47.97
2023-01-21T09:38:31.271Z,42.70
2023-01-21T09:41:03.961Z,43.45
2023-01-21T09:43:43.469Z,43.50
2023-01-21T09:46:19.816Z,40.95
2023-01-21T09:48:49.253Z,39.38
2023-01-21T09:51:52.625Z,43.05
2023-01-21T09:54:24.752Z,37.08
2023-01-21T09:57:15.653Z,37.05
2023-01-21T10:00:01.962Z,42.67
2023-01-21T10:02:54.965Z,41.10
2023-01-21T10:05:24.511Z,42.42
2023-01-21T10:08:17.219Z,39.72
2023-01-21T10:10:52.951Z,42.72
2023-01-21T10:13:29.387Z,43.28
2023-01-21T10:16:11.103Z,45.75
2023-01-21T10:18:39.044Z,50.97
2023-01-21T10:21:16.225Z,47.70
2023-01-21T10:23:46.307Z,45.85
2023-01-21T10:26:16.919Z,47.78
2023-01-21T10:28:54.037Z,49.03
2023-01-21T10:31:26.230Z,53.05
2023-01-21T10:33:53.064Z,49.97
2023-01-21T10:36:28.414Z,51.38
2023-01-21T10:39:12.753Z,46.05
2023-01-21T10:42:04.412Z,50.47
2023-01-21T10:44:47.795Z,54.50
2023-01-21T10:47:37.997Z,48.83
2023-01-21T10:50:30.653Z,46.87
2023-01-21T10:53:10.446Z,47.08
2023-01-21T10:55:48.988Z,51.83
2023-01-21T10:58:27.264Z,52.70
2023-01-21T11:00:54.264Z,53.47
2023-01-21T11:03:30.130Z,51.92
2023-01-21T11:05:58.702Z,44.90
2023-01-21T11:08:26.548Z,49.92
2023-01-21T11:10:55.340Z,48.40
2023-01-21T11:13:22.324Z,51.45
2023-01-21T11:15:53.828Z,50.33
2023-01-21T11:18:40.169Z,50.55
2023-01-21T11:21:20.260Z,47.50
2023-01-21T11:23:57.672Z,38.90
2023-01-21T11:26:35.396Z,49.75
2023-01-21T11:29:11.126Z,49.20
2023-01-21T11:31:38.017Z,49.25
2023-01-21T11:34:06.443Z,52.17
2023-01-21T11:36:33.189Z,52.15
2023-01-21T11:39:05.848Z,54.90
2023-01-21T11:41:34.390Z,48.78
2023-01-21T11:44:18.485Z,42.72
2023-01-21T11:46:45.173Z,45.13
2023-01-21T11:49:17.980Z,42.45
2023-01-21T11:51:46.152Z,65.57
2023-01-21T11:54:23.313Z,59.10
2023-01-21T11:57:01.107Z,56.28
2023-01-21T11:59:36.216Z,56.20
2023-01-21T12:02:12.660Z,47.40
2023-01-21T12:04:45.107Z,46.33
2023-01-21T12:07:22.141Z,43.92
2023-01-21T12:09:51.059Z,44.42
2023-01-21T12:12:26.435Z,48.53
2023-01-21T12:14:58.616Z,41.85
2023-01-21T12:17:41.392Z,41.22
2023-01-21T12:20:32.103Z,42.13
2023-01-21T12:23:25.695Z,43.10
2023-01-21T12:26:23.520Z,38.63
2023-01-21T12:29:21.800Z,35.60
2023-01-21T12:32:18.851Z,37.72
2023-01-21T12:34:51.527Z,40.13
2023-01-21T12:37:33.171Z,36.75
2023-01-21T12:40:01.776Z,47.22
2023-01-21T12:42:34.806Z,42.60
2023-01-21T12:45:09.599Z,38.42
2023-01-21T12:47:45.116Z,39.60
2023-01-21T12:50:27.299Z,44.30
2023-01-21T12:53:15.200Z,40.55
2023-01-21T12:55:54.810Z,39.72
2023-01-21T12:58:25.212Z,39.22
2023-01-21T13:00:53.781Z,28.40
2023-01-21T13:03:24.271Z,38.10
2023-01-21T13:06:04.688Z,34.05
2023-01-21T13:09:01.651Z,29.83
2023-01-21T13:11:33.342Z,35.20
2023-01-21T13:14:23.879Z,40.00
2023-01-21T13:16:57.983Z,27.65
2023-01-21T13:19:26.704Z,38.33
2023-01-21T13:22:08.285Z,30.35
2023-01-21T13:24:43.462Z,38.05
2023-01-21T13:27:16.599Z,38.72
2023-01-21T13:29:56.071Z,40.83
2023-01-21T13:32:28.653Z,37.50
2023-01-21T13:35:06.712Z,33.22
2023-01-21T13:37:58.477Z,40.30
2023-01-21T13:40:49.863Z,37.20
2023-01-21T13:43:31.266Z,33.75
2023-01-21T13:46:07.146Z,36.53
2023-01-21T13:48:50.005Z,35.58
2023-01-21T13:51:19.633Z,36.42
2023-01-21T13:53:51.911Z,37.03
2023-01-21T13:56:43.127Z,31.33
2023-01-21T13:59:18.350Z,30.63
2023-01-21T14:02:01.529Z,32.28
2023-01-21T14:04:41.640Z,24.73
2023-01-21T14:07:23.348Z,30.50
2023-01-21T14:10:04.279Z,24.35
2023-01-21T14:12:52.029Z,24.98
2023-01-21T14:15:36.917Z,29.08
2023-01-21T14:18:54.718Z,28.20
2023-01-21T14:21:21.758Z,36.95
2023-01-21T14:24:13.419Z,28.20
2023-01-21T14:26:39.859Z,23.00
2023-01-21T14:29:34.247Z,27.38
2023-01-21T14:32:23.177Z,26.13
2023-01-21T14:35:08.949Z,33.92
2023-01-21T14:37:44.397Z,28.27
2023-01-21T14:40:18.835Z,25.25
2023-01-21T14:42:50.296Z,27.90
2023-01-21T14:45:22.704Z,27.45
2023-01-21T14:47:55.836Z,18.40
2023-01-21T14:50:53.906Z,19.05
2023-01-21T14:53:26.027Z,28.75
2023-01-21T14:56:06.229Z,27.42
2023-01-21T14:58:34.437Z,27.85
2023-01-21T15:01:00.980Z,25.48
2023-01-21T15:03:28.690Z,25.83
2023-01-21T15:05:58.252Z,20.85
2023-01-21T15:08:45.439Z,22.17
2023-01-21T15:11:20.875Z,20.98
2023-01-21T15:13:59.858Z,25.02
2023-01-21T15:16:37.868Z,22.48
2023-01-21T15:19:07.843Z,23.30
2023-01-21T15:21:36.103Z,30.75
2023-01-21T15:24:26.025Z,24.23
2023-01-21T15:27:21.207Z,17.55
2023-01-21T15:29:53.674Z,23.50
2023-01-21T15:32:40.132Z,22.02
2023-01-21T15:35:21.890Z,19.25
2023-01-21T15:37:52.128Z,24.42
2023-01-21T15:40:32.057Z,20.35
2023-01-21T15:43:27.829Z,30.33
2023-01-21T15:46:31.534Z,23.38
2023-01-21T15:49:13.092Z,22.77
2023-01-21T15:51:54.719Z,23.00
2023-01-21T15:54:53.439Z,17.85
2023-01-21T15:57:48.864Z,21.23
2023-01-21T16:00:33.893Z,23.40
2023-01-21T16:03:18.990Z,20.95
2023-01-21T16:06:19.161Z,20.42
2023-01-21T16:09:07.295Z,19.75
2023-01-21T16:12:09.325Z,25.23
2023-01-21T16:14:54.412Z,18.77
2023-01-21T16:17:32.991Z,17.58
2023-01-21T16:20:00.242Z,22.95
2023-01-21T16:22:32.725Z,17.83
2023-01-21T16:25:08.783Z,21.35
2023-01-21T16:27:36.092Z,17.00
2023-01-21T16:30:14.296Z,19.65
2023-01-21T16:32:40.778Z,16.48
2023-01-21T16:35:07.918Z,16.25
2023-01-21T16:37:35.070Z,18.13
2023-01-21T16:40:23.985Z,24.08
2023-01-21T16:43:06.917Z,16.55
2023-01-21T16:45:33.415Z,18.92
2023-01-21T16:48:00.664Z,20.58
2023-01-21T16:50:28.729Z,23.08
2023-01-21T16:52:56.714Z,21.65
2023-01-21T16:55:26.378Z,23.50
2023-01-21T16:57:55.113Z,21.70
2023-01-21T17:00:39.824Z,18.38
2023-01-21T17:03:07.709Z,21.73
2023-01-21T17:05:35.826Z,15.77
2023-01-21T17:08:10.071Z,19.17
2023-01-21T17:10:39.501Z,24.33
2023-01-21T17:13:07.633Z,18.85
2023-01-21T17:15:41.558Z,22.60
2023-01-21T17:18:21.283Z,26.88
2023-01-21T17:20:49.747Z,18.17
2023-01-21T17:23:26.529Z,22.13
2023-01-21T17:25:56.187Z,20.95
2023-01-21T17:28:28.915Z,24.20
2023-01-21T17:31:16.270Z,24.13
2023-01-21T17:33:44.194Z,26.30
2023-01-21T17:36:15.492Z,23.48
2023-01-21T17:38:43.913Z,25.35
2023-01-21T17:41:26.769Z,24.85
2023-01-21T17:43:55.793Z,23.63
2023-01-21T17:46:23.772Z,25.23
2023-01-21T17:48:55.732Z,29.05
2023-01-21T17:51:25.089Z,25.88
2023-01-21T17:53:55.467Z,24.92
2023-01-21T17:56:41.644Z,25.58
2023-01-21T17:59:38.392Z,27.65
2023-01-21T18:02:10.203Z,29.55
2023-01-21T18:04:36.633Z,27.52
2023-01-21T18:07:06.944Z,35.55
2023-01-21T18:09:34.417Z,27.05
2023-01-21T18:12:00.855Z,31.98
2023-01-21T18:14:28.721Z,30.63
2023-01-21T18:16:55.313Z,27.65
2023-01-21T18:19:29.605Z,28.20
2023-01-21T18:21:56.511Z,31.17
2023-01-21T18:24:23.206Z,31.60
2023-01-21T18:26:50.221Z,32.03
2023-01-21T18:29:18.215Z,35.70
2023-01-21T18:31:45.924Z,28.95
2023-01-21T18:34:12.543Z,28.67
2023-01-21T18:36:40.060Z,29.35
2023-01-21T18:39:19.441Z,28.55
2023-01-21T18:41:46.686Z,28.92
2023-01-21T18:44:14.134Z,27.33
2023-01-21T18:46:43.681Z,26.88
2023-01-21T18:49:18.380Z,28.38
2023-01-21T18:51:45.154Z,26.63
2023-01-21T18:54:13.477Z,29.33
2023-01-21T18:56:42.188Z,29.48
2023-01-21T18:59:16.864Z,28.88
2023-01-21T19:01:43.752Z,30.13
2023-01-21T19:04:14.214Z,24.45
2023-01-21T19:06:40.755Z,33.55
2023-01-21T19:09:23.508Z,28.50
2023-01-21T19:11:50.400Z,28.38
2023-01-21T19:14:16.915Z,25.48
2023-01-21T19:16:43.858Z,32.55
2023-01-21T19:19:11.368Z,35.63
2023-01-21T19:21:38.523Z,33.20
2023-01-21T19:24:06.475Z,31.50
2023-01-21T19:26:33.732Z,30.20
2023-01-21T19:29:00.661Z,32.97
2023-01-21T19:31:27.164Z,32.45
2023-01-21T19:33:53.788Z,30.88
2023-01-21T19:36:21.160Z,33.35
2023-01-21T19:38:55.339Z,39.20
2023-01-21T19:41:22.047Z,33.97
2023-01-21T19:43:48.558Z,36.47
2023-01-21T19:46:15.302Z,37.33
2023-01-21T19:48:41.820Z,34.30
2023-01-21T19:51:08.700Z,37.92
2023-01-21T19:53:36.690Z,37.78
2023-01-21T19:56:04.624Z,38.42
2023-01-21T19:58:31.992Z,37.35
2023-01-21T20:00:58.517Z,42.88
2023-01-21T20:03:26.619Z,35.90
2023-01-21T20:05:59.382Z,37.88
2023-01-21T20:08:27.756Z,36.42
2023-01-21T20:10:54.357Z,38.30
2023-01-21T20:13:20.877Z,35.38
2023-01-21T20:15:48.773Z,38.25
2023-01-21T20:18:33.621Z,37.60
2023-01-21T20:21:00.069Z,34.30
2023-01-21T20:23:26.877Z,38.03
2023-01-21T20:25:55.405Z,37.80
2023-01-21T20:28:24.806Z,38.58
2023-01-21T20:30:52.512Z,39.45
2023-01-21T20:33:21.285Z,39.53
2023-01-21T20:35:48.550Z,34.15
2023-01-21T20:38:17.165Z,35.13
2023-01-21T20:40:43.696Z,37.17
2023-01-21T20:43:10.143Z,38.90
2023-01-21T20:45:46.758Z,35.35
2023-01-21T20:48:25.013Z,34.53
2023-01-21T20:50:51.964Z,39.65
2023-01-21T20:53:18.559Z,35.15
2023-01-21T20:55:46.229Z,32.75
2023-01-21T20:58:13.893Z,37.17
2023-01-21T21:00:40.933Z,33.17
2023-01-21T21:03:07.649Z,34.90
2023-01-21T21:05:34.175Z,35.20
2023-01-21T21:08:00.701Z,33.33
2023-01-21T21:10:36.179Z,35.55
2023-01-21T21:13:03.181Z,40.22
2023-01-21T21:15:34.737Z,39.45
2023-01-21T21:18:03.277Z,34.15
2023-01-21T21:20:31.814Z,32.92
2023-01-21T21:22:58.461Z,34.45
2023-01-21T21:25:27.057Z,38.30
2023-01-21T21:27:54.182Z,36.55
2023-01-21T21:30:23.878Z,36.10
2023-01-21T21:32:50.321Z,33.65
2023-01-21T21:35:21.846Z,34.22
2023-01-21T21:37:48.923Z,33.30
2023-01-21T21:40:15.463Z,29.50
2023-01-21T21:43:00.456Z,33.28
2023-01-21T21:45:27.312Z,31.80
2023-01-21T21:48:12.461Z,28.52
2023-01-21T21:50:38.867Z,31.90
2023-01-21T21:53:05.371Z,32.70
2023-01-21T21:55:32.319Z,25.52
2023-01-21T21:57:58.866Z,31.30
2023-01-21T22:00:25.423Z,30.42
2023-01-21T22:02:51.858Z,28.33
2023-01-21T22:05:18.514Z,22.65
2023-01-21T22:07:45.230Z,32.00
2023-01-21T22:10:11.824Z,28.10
2023-01-21T22:12:38.259Z,29.77
2023-01-21T22:15:04.990Z,29.95
2023-01-21T22:17:32.483Z,27.60
2023-01-21T22:19:59.546Z,31.10
2023-01-21T22:22:25.995Z,31.27
2023-01-21T22:24:54.540Z,29.75
2023-01-21T22:27:21.311Z,33.67
2023-01-21T22:29:47.721Z,32.22
2023-01-21T22:32:15.910Z,29.55
2023-01-21T22:34:43.953Z,29.27
2023-01-21T22:37:10.509Z,34.40
2023-01-21T22:39:37.068Z,31.90
2023-01-21T22:42:05.049Z,33.78
2023-01-21T22:44:31.522Z,28.15
2023-01-21T22:46:58.088Z,26.98
2023-01-21T22:49:24.558Z,29.08
2023-01-21T22:51:51.042Z,30.88
2023-01-21T22:54:17.484Z,28.08
2023-01-21T22:56:53.755Z,32.58
2023-01-21T22:59:20.286Z,30.52
2023-01-21T23:01:48.712Z,28.77
2023-01-21T23:04:17.299Z,31.45
2023-01-21T23:06:44.774Z,32.63
2023-01-21T23:09:15.540Z,27.70
2023-01-21T23:11:42.384Z,35.53
2023-01-21T23:14:09.632Z,34.63
2023-01-21T23:16:36.206Z,35.00
2023-01-21T23:19:02.932Z,33.83
2023-01-21T23:21:29.387Z,29.75
2023-01-21T23:23:55.835Z,32.38
2023-01-21T23:26:22.760Z,33.50
2023-01-21T23:28:53.655Z,32.35
2023-01-21T23:33:54.160Z,29.63
2023-01-21T23:36:20.602Z,28.20
2023-01-21T23:38:47.256Z,30.23
2023-01-21T23:41:16.749Z,27.25
2023-01-21T23:43:43.600Z,29.35
2023-01-21T23:46:16.345Z,25.67
2023-01-21T23:48:42.908Z,29.40
2023-01-21T23:51:11.986Z,24.67
2023-01-21T23:53:38.472Z,24.83
2023-01-21T23:56:05.019Z,24.73
2023-01-21T23:58:31.474Z,27.33
